Time;durP1;ratioP1;P1;durP2;ratioP2;P2;SDS_P1;SDS_P2;PMS_P1;PMS_P2;Temp;Humidity;BMP_temperature;BMP_pressure;BME280_temperature;BME280_humidity;BME280_pressure;Samples;Min_cycle;Max_cycle;Signal;HPM_P1;HPM_P2
2023/05/16 00:00:35;;;;;;;7.53;2.00;;;17.90;74.00;;;;;;4098770;28;20404;-77
2023/05/16 00:02:57;;;;;;;4.55;1.92;;;17.90;73.90;;;;;;4104533;28;20039;-80
2023/05/16 00:05:20;;;;;;;7.22;1.38;;;17.90;73.90;;;;;;4100824;28;20035;-79
2023/05/16 00:07:44;;;;;;;0.88;0.70;;;18.00;73.90;;;;;;4101324;28;20043;-82
2023/05/16 00:10:07;;;;;;;2.88;0.85;;;18.00;73.80;;;;;;4102116;28;20054;-78
2023/05/16 00:12:31;;;;;;;2.20;0.70;;;18.00;73.70;;;;;;4104183;28;20183;-84
2023/05/16 00:14:54;;;;;;;1.05;0.57;;;18.00;73.60;;;;;;4102645;28;20117;-81
2023/05/16 00:17:19;;;;;;;2.67;0.65;;;18.10;73.60;;;;;;4102351;28;20046;-82
2023/05/16 00:19:43;;;;;;;2.85;0.60;;;18.10;73.50;;;;;;4095762;28;20097;-79
2023/05/16 00:22:05;;;;;;;0.60;0.60;;;18.10;73.50;;;;;;4098732;28;20094;-77
2023/05/16 00:24:28;;;;;;;0.45;0.43;;;18.10;73.40;;;;;;4096465;28;20054;-82
2023/05/16 00:26:50;;;;;;;0.95;0.57;;;18.20;73.40;;;;;;4104372;28;20131;-81
2023/05/16 00:29:13;;;;;;;0.50;0.50;;;18.20;73.20;;;;;;4091984;28;20082;-82
2023/05/16 00:31:35;;;;;;;0.50;0.50;;;18.20;73.20;;;;;;4100038;28;20044;-80
2023/05/16 00:33:58;;;;;;;0.55;0.50;;;18.30;73.20;;;;;;4098981;28;20601;-80
2023/05/16 00:36:20;;;;;;;1.30;0.60;;;18.30;73.10;;;;;;4099725;28;20152;-78
2023/05/16 00:38:43;;;;;;;0.40;0.40;;;18.30;73.00;;;;;;4093070;28;20094;-80
2023/05/16 00:41:05;;;;;;;1.15;0.30;;;18.30;73.00;;;;;;4098015;28;20059;-79
2023/05/16 00:43:28;;;;;;;0.47;0.47;;;18.30;73.00;;;;;;4102388;28;20122;-79
2023/05/16 00:45:50;;;;;;;0.73;0.60;;;18.40;72.90;;;;;;4093070;28;20045;-79
2023/05/16 00:48:14;;;;;;;0.40;0.40;;;18.40;72.80;;;;;;4071006;29;20048;-80
2023/05/16 00:50:37;;;;;;;;;;;18.40;72.80;;;;;;4101439;28;20047;-79
2023/05/16 00:53:00;;;;;;;0.52;0.40;;;18.40;72.80;;;;;;4095809;28;19917;-78
2023/05/16 00:55:22;;;;;;;0.77;0.47;;;18.50;72.70;;;;;;4087297;28;20035;-77
2023/05/16 00:57:45;;;;;;;0.38;0.38;;;18.50;72.60;;;;;;4099629;28;20405;-76
2023/05/16 01:00:09;;;;;;;0.40;0.40;;;18.50;72.40;;;;;;4105913;28;20516;-77
2023/05/16 01:02:32;;;;;;;0.85;0.50;;;18.60;72.40;;;;;;4097834;28;20053;-80
2023/05/16 01:04:55;;;;;;;0.38;0.32;;;18.60;72.50;;;;;;4108887;28;20041;-77
2023/05/16 01:07:17;;;;;;;0.53;0.50;;;18.70;72.40;;;;;;4093633;28;20514;-75
2023/05/16 01:09:40;;;;;;;0.60;0.60;;;18.70;72.20;;;;;;4096549;28;20327;-74
2023/05/16 01:12:16;;;;;;;1.98;0.50;;;18.70;72.20;;;;;;4094334;28;20080;-76
2023/05/16 01:14:59;;;;;;;0.50;0.50;;;18.70;72.20;;;;;;4107097;28;20046;-77
2023/05/16 01:17:40;;;;;;;0.40;0.40;;;18.80;72.10;;;;;;4092680;28;20043;-75
2023/05/16 01:20:33;;;;;;;0.80;0.60;;;18.80;72.00;;;;;;4106706;28;20043;-76
2023/05/16 01:23:22;;;;;;;0.43;0.43;;;18.80;71.90;;;;;;4096200;28;20046;-78
2023/05/16 01:25:45;;;;;;;0.88;0.40;;;18.80;71.90;;;;;;4098832;28;20035;-76
2023/05/16 01:28:08;;;;;;;0.75;0.60;;;18.90;71.90;;;;;;4098332;28;20098;-75
2023/05/16 01:30:37;;;;;;;1.45;0.30;;;18.90;71.90;;;;;;4105243;28;20102;-77
2023/05/16 01:33:00;;;;;;;0.50;0.50;;;18.90;71.90;;;;;;4097260;28;20122;-77
2023/05/16 01:35:22;;;;;;;0.82;0.45;;;18.90;72.00;;;;;;4104621;28;20501;-76
2023/05/16 01:38:13;;;;;;;1.58;0.50;;;19.00;71.90;;;;;;4094997;28;20039;-78
2023/05/16 01:41:00;;;;;;;0.55;0.55;;;19.00;71.90;;;;;;4100203;28;20512;-77
2023/05/16 01:43:55;;;;;;;1.27;0.40;;;19.00;71.80;;;;;;4099205;28;20051;-76
2023/05/16 01:46:42;;;;;;;1.73;0.77;;;19.00;71.80;;;;;;4099104;28;20039;-76
2023/05/16 01:49:04;;;;;;;1.65;0.32;;;19.00;71.70;;;;;;4083929;29;20055;-76
2023/05/16 01:51:32;;;;;;;1.00;0.88;;;19.10;71.70;;;;;;4093624;28;20039;-79
2023/05/16 01:54:00;;;;;;;3.58;1.27;;;19.10;70.90;;;;;;4092899;28;20445;-77
2023/05/16 01:56:25;;;;;;;3.20;1.33;;;19.10;70.50;;;;;;4102327;28;20051;-78
2023/05/16 01:58:49;;;;;;;2.70;1.15;;;19.10;70.70;;;;;;4098883;28;20090;-79
2023/05/16 02:01:13;;;;;;;4.00;1.30;;;19.10;70.70;;;;;;4109686;28;20114;-77
2023/05/16 02:03:35;;;;;;;1.42;0.90;;;19.10;70.80;;;;;;4099256;28;20054;-78
2023/05/16 02:05:58;;;;;;;3.67;1.00;;;19.00;70.80;;;;;;4096122;28;20121;-76
2023/05/16 02:08:21;;;;;;;2.28;0.85;;;19.00;70.90;;;;;;4098202;28;20943;-78
2023/05/16 02:10:43;;;;;;;2.33;0.85;;;19.10;71.00;;;;;;4101343;28;20051;-76
2023/05/16 02:13:06;;;;;;;5.07;1.00;;;19.10;71.10;;;;;;4104298;28;20039;-74
2023/05/16 02:15:29;;;;;;;6.35;2.28;;;19.10;71.10;;;;;;4101240;28;20089;-74
2023/05/16 02:17:51;;;;;;;7.43;3.10;;;19.10;71.20;;;;;;4098438;28;20150;-71
2023/05/16 02:20:14;;;;;;;5.35;3.55;;;19.10;71.40;;;;;;4096370;28;20493;-72
2023/05/16 02:22:41;;;;;;;7.07;4.65;;;19.10;71.50;;;;;;4090155;28;20044;-73
2023/05/16 02:25:04;;;;;;;5.72;4.65;;;19.10;71.30;;;;;;4107930;28;20050;-71
2023/05/16 02:27:27;;;;;;;6.43;5.00;;;19.10;71.30;;;;;;4101323;28;20054;-71
2023/05/16 02:29:49;;;;;;;15.68;13.05;;;19.20;71.30;;;;;;4108133;28;20054;-71
2023/05/16 02:32:11;;;;;;;15.05;12.02;;;19.20;71.20;;;;;;4096625;28;20035;-71
2023/05/16 02:34:34;;;;;;;20.98;16.20;;;19.20;71.30;;;;;;4098154;28;20066;-71
2023/05/16 02:36:56;;;;;;;32.83;27.17;;;19.20;71.50;;;;;;4103585;28;20050;-71
2023/05/16 02:39:18;;;;;;;43.35;36.78;;;19.20;71.70;;;;;;4096625;28;20042;-72
2023/05/16 02:41:41;;;;;;;47.38;37.35;;;19.20;71.70;;;;;;4096777;28;20042;-71
2023/05/16 02:44:03;;;;;;;51.50;43.35;;;19.20;71.70;;;;;;4102719;28;20039;-72
2023/05/16 02:46:34;;;;;;;52.88;42.67;;;19.20;71.70;;;;;;4092371;28;20027;-72
2023/05/16 02:48:57;;;;;;;48.97;40.67;;;19.20;71.60;;;;;;4096970;28;20050;-72
2023/05/16 02:51:24;;;;;;;49.47;40.20;;;19.30;71.60;;;;;;4105127;28;20078;-71
2023/05/16 02:53:47;;;;;;;51.50;41.25;;;19.30;71.50;;;;;;4096200;28;20122;-71
2023/05/16 02:56:10;;;;;;;67.28;54.10;;;19.30;71.40;;;;;;4099790;28;20038;-72
2023/05/16 02:58:32;;;;;;;59.20;48.10;;;19.30;71.80;;;;;;4097013;28;20712;-74
2023/05/16 03:00:55;;;;;;;55.03;40.90;;;19.30;71.70;;;;;;4097952;28;20050;-75
2023/05/16 03:03:17;;;;;;;56.70;41.05;;;19.40;72.00;;;;;;4097897;28;20066;-73
2023/05/16 03:05:40;;;;;;;46.92;35.72;;;19.40;72.20;;;;;;4095298;28;20122;-73
2023/05/16 03:08:05;;;;;;;44.28;33.33;;;19.40;72.20;;;;;;4097499;28;20028;-74
2023/05/16 03:10:28;;;;;;;41.63;32.90;;;19.50;72.20;;;;;;4098792;28;20047;-72
2023/05/16 03:12:50;;;;;;;54.60;33.15;;;19.60;72.20;;;;;;4110271;28;20049;-72
2023/05/16 03:15:12;;;;;;;41.30;32.53;;;19.60;72.20;;;;;;4086018;29;20063;-73
2023/05/16 03:17:35;;;;;;;40.70;31.00;;;19.60;72.10;;;;;;4100109;28;20592;-73
2023/05/16 03:19:57;;;;;;;37.33;30.42;;;19.60;72.10;;;;;;4101567;28;20558;-72
2023/05/16 03:22:20;;;;;;;35.90;29.23;;;19.70;72.00;;;;;;4098797;28;20114;-74
2023/05/16 03:24:42;;;;;;;35.45;28.45;;;19.70;71.90;;;;;;4097450;28;20046;-73
2023/05/16 03:27:05;;;;;;;30.42;25.33;;;19.80;72.10;;;;;;4097461;28;20094;-74
2023/05/16 03:29:27;;;;;;;30.90;25.58;;;19.80;71.70;;;;;;4113909;28;20512;-73
2023/05/16 03:31:59;;;;;;;31.17;24.95;;;19.90;71.70;;;;;;4097257;28;20047;-81
2023/05/16 03:34:21;;;;;;;29.05;23.92;;;20.00;71.70;;;;;;4103974;28;20074;-76
2023/05/16 03:36:44;;;;;;;29.33;22.75;;;20.00;71.50;;;;;;4102650;28;20035;-77
2023/05/16 03:39:07;;;;;;;27.58;22.70;;;20.10;71.40;;;;;;4108637;28;20497;-72
2023/05/16 03:41:29;;;;;;;37.78;31.63;;;20.10;71.20;;;;;;4097442;28;20470;-74
2023/05/16 03:43:52;;;;;;;38.72;31.50;;;20.20;70.80;;;;;;4102394;28;20077;-71
2023/05/16 03:46:14;;;;;;;39.50;32.03;;;20.20;70.70;;;;;;4104218;28;20039;-74
2023/05/16 03:48:37;;;;;;;40.65;30.15;;;20.30;70.70;;;;;;4103536;28;20051;-73
2023/05/16 03:50:59;;;;;;;33.85;29.23;;;20.30;70.60;;;;;;4101467;28;20039;-74
2023/05/16 03:53:21;;;;;;;33.95;27.92;;;20.40;70.50;;;;;;4108840;28;20631;-73
2023/05/16 03:55:44;;;;;;;32.05;28.10;;;20.40;70.30;;;;;;4102732;28;20043;-72
2023/05/16 03:58:07;;;;;;;32.75;27.33;;;20.50;70.20;;;;;;4105307;28;20106;-72
2023/05/16 04:00:29;;;;;;;32.13;26.20;;;20.60;70.00;;;;;;4101967;28;20039;-72
2023/05/16 04:02:52;;;;;;;31.92;25.88;;;20.60;69.80;;;;;;4103388;28;20150;-72
2023/05/16 04:05:14;;;;;;;29.55;25.73;;;20.70;69.70;;;;;;4104482;28;20038;-73
2023/05/16 04:07:37;;;;;;;28.25;25.17;;;20.80;69.50;;;;;;4098367;28;20069;-70
2023/05/16 04:09:59;;;;;;;28.92;24.38;;;20.90;69.30;;;;;;4105161;28;20058;-74
2023/05/16 04:12:22;;;;;;;30.52;23.67;;;20.90;69.20;;;;;;4088580;28;20058;-71
2023/05/16 04:14:47;;;;;;;28.13;21.98;;;21.00;69.10;;;;;;4088079;29;20055;-74
2023/05/16 04:17:11;;;;;;;29.00;22.50;;;21.00;69.00;;;;;;4080590;28;20091;-73
2023/05/16 04:19:33;;;;;;;27.33;22.10;;;21.10;68.80;;;;;;4103642;28;20086;-71
2023/05/16 04:21:56;;;;;;;26.35;20.83;;;21.20;68.60;;;;;;4098441;28;20035;-72
2023/05/16 04:24:18;;;;;;;27.05;20.92;;;21.30;68.40;;;;;;4105074;28;20039;-74
2023/05/16 04:26:41;;;;;;;25.40;21.10;;;21.30;68.20;;;;;;4108336;28;20378;-72
2023/05/16 04:29:03;;;;;;;25.08;20.48;;;21.40;68.00;;;;;;4099899;28;20146;-72
2023/05/16 04:31:26;;;;;;;27.20;22.33;;;21.50;68.00;;;;;;4104472;28;20138;-71
2023/05/16 04:33:49;;;;;;;29.92;23.70;;;21.50;67.40;;;;;;4092046;28;20039;-70
2023/05/16 04:36:11;;;;;;;26.40;22.15;;;21.60;67.30;;;;;;4108519;28;20050;-71
2023/05/16 04:38:34;;;;;;;25.40;22.08;;;21.60;67.20;;;;;;4090621;28;20114;-73
2023/05/16 04:40:57;;;;;;;26.50;23.10;;;21.70;66.90;;;;;;4100086;28;20051;-73
2023/05/16 04:43:20;;;;;;;27.55;22.00;;;21.80;66.70;;;;;;4087895;28;20058;-71
2023/05/16 04:45:42;;;;;;;26.05;22.63;;;21.80;66.40;;;;;;4097459;28;20367;-71
2023/05/16 04:48:05;;;;;;;24.33;21.08;;;21.90;66.00;;;;;;4099112;28;20113;-72
2023/05/16 04:50:27;;;;;;;24.13;21.35;;;21.90;66.00;;;;;;4097602;28;20047;-78
2023/05/16 04:52:50;;;;;;;25.95;21.90;;;22.00;65.80;;;;;;4103585;28;20675;-75
2023/05/16 04:55:12;;;;;;;24.60;20.80;;;22.10;65.60;;;;;;4105513;28;20034;-78
2023/05/16 04:57:34;;;;;;;23.05;19.83;;;22.10;65.40;;;;;;4093925;28;20084;-77
2023/05/16 04:59:57;;;;;;;22.45;19.30;;;22.20;65.30;;;;;;4101725;28;20088;-77
2023/05/16 05:02:20;;;;;;;23.77;19.40;;;22.20;65.20;;;;;;4097399;28;20070;-78
2023/05/16 05:04:42;;;;;;;22.50;18.75;;;22.20;65.00;;;;;;4107850;28;20040;-76
2023/05/16 05:07:04;;;;;;;20.95;18.33;;;22.20;65.00;;;;;;4095524;28;20081;-77
2023/05/16 05:09:27;;;;;;;21.73;17.65;;;22.20;65.00;;;;;;4098118;28;20414;-77
2023/05/16 05:11:50;;;;;;;18.75;16.52;;;22.30;64.90;;;;;;4097642;28;20046;-76
2023/05/16 05:14:12;;;;;;;18.88;16.65;;;22.30;64.90;;;;;;4095392;28;20046;-77
2023/05/16 05:16:36;;;;;;;20.15;16.85;;;22.30;64.70;;;;;;4082611;29;20082;-78
2023/05/16 05:18:58;;;;;;;19.77;14.75;;;22.40;64.60;;;;;;4100516;28;20040;-78
2023/05/16 05:21:22;;;;;;;17.63;14.70;;;22.40;64.50;;;;;;4099016;28;20098;-80
2023/05/16 05:23:48;;;;;;;15.35;13.63;;;22.50;64.30;;;;;;4101865;28;20421;-75
2023/05/16 05:26:11;;;;;;;15.75;13.45;;;22.50;64.20;;;;;;4080867;29;20063;-72
2023/05/16 05:28:33;;;;;;;14.98;13.25;;;22.50;63.90;;;;;;4099366;28;20054;-73
2023/05/16 05:30:56;;;;;;;16.10;13.70;;;22.60;63.80;;;;;;4099614;28;20412;-73
2023/05/16 05:33:18;;;;;;;15.98;13.43;;;22.60;63.70;;;;;;4091044;28;20139;-72
2023/05/16 05:35:41;;;;;;;14.20;11.70;;;22.70;63.70;;;;;;4098217;28;20042;-72
2023/05/16 05:38:06;;;;;;;13.25;11.55;;;22.60;63.50;;;;;;4096318;28;20039;-73
2023/05/16 05:40:28;;;;;;;13.48;12.02;;;22.60;63.50;;;;;;4099433;28;20039;-72
2023/05/16 05:42:50;;;;;;;13.80;11.10;;;22.60;63.50;;;;;;4096960;28;20043;-71
2023/05/16 05:45:14;;;;;;;15.45;11.55;;;22.60;63.50;;;;;;4107941;28;20760;-73
2023/05/16 05:47:36;;;;;;;13.00;10.85;;;22.60;63.60;;;;;;4111311;28;20118;-72
2023/05/16 05:49:59;;;;;;;13.63;11.02;;;22.50;63.60;;;;;;4100711;28;20057;-75
2023/05/16 05:52:22;;;;;;;12.55;10.30;;;22.50;63.80;;;;;;4082123;28;20042;-72
2023/05/16 05:54:44;;;;;;;13.15;9.88;;;22.50;63.90;;;;;;4100746;28;20540;-72
2023/05/16 05:57:07;;;;;;;11.70;9.05;;;22.40;63.90;;;;;;4098586;28;20680;-72
2023/05/16 05:59:29;;;;;;;14.18;10.23;;;22.40;64.00;;;;;;4098244;28;20040;-72
2023/05/16 06:01:52;;;;;;;11.15;9.38;;;22.40;64.10;;;;;;4091622;28;20098;-73
2023/05/16 06:04:20;;;;;;;10.68;9.23;;;22.30;64.20;;;;;;4095631;28;20614;-73
2023/05/16 06:06:42;;;;;;;11.23;8.88;;;22.30;64.20;;;;;;4091400;29;20043;-72
2023/05/16 06:09:06;;;;;;;10.85;8.18;;;22.30;64.30;;;;;;4093143;28;20043;-75
2023/05/16 06:11:28;;;;;;;10.15;8.30;;;22.30;64.30;;;;;;4096462;28;20043;-72
2023/05/16 06:13:51;;;;;;;9.52;7.88;;;22.30;64.30;;;;;;4100282;28;20042;-72
2023/05/16 06:16:13;;;;;;;8.68;7.43;;;22.20;64.30;;;;;;4102258;28;20043;-71
2023/05/16 06:18:36;;;;;;;8.43;7.05;;;22.20;64.30;;;;;;4096222;28;20042;-72
2023/05/16 06:20:58;;;;;;;7.97;7.05;;;22.20;64.30;;;;;;4097287;28;20042;-70
2023/05/16 06:23:21;;;;;;;8.20;6.53;;;22.20;64.00;;;;;;4095284;28;20031;-70
2023/05/16 06:25:43;;;;;;;9.75;6.95;;;22.30;64.00;;;;;;4097200;28;20137;-71
2023/05/16 06:28:05;;;;;;;7.22;6.20;;;22.30;64.00;;;;;;4095422;28;20059;-72
2023/05/16 06:30:28;;;;;;;8.13;6.10;;;22.40;63.60;;;;;;4094911;28;20051;-70
2023/05/16 06:32:50;;;;;;;7.18;6.40;;;22.70;63.50;;;;;;4095437;28;20518;-70
2023/05/16 06:35:13;;;;;;;9.18;6.15;;;23.00;62.00;;;;;;4087863;29;20048;-71
2023/05/16 06:37:35;;;;;;;7.22;5.78;;;23.50;60.60;;;;;;4096992;28;20051;-70
2023/05/16 06:40:00;;;;;;;9.48;5.75;;;23.80;59.80;;;;;;4100690;28;20051;-71
2023/05/16 06:42:22;;;;;;;8.82;5.13;;;23.90;59.40;;;;;;4099664;28;20043;-71
2023/05/16 06:44:45;;;;;;;6.53;4.55;;;23.90;59.70;;;;;;4096565;28;20050;-72
2023/05/16 06:47:07;;;;;;;5.68;4.45;;;23.70;60.20;;;;;;4072709;28;20090;-71
2023/05/16 06:49:29;;;;;;;6.57;3.97;;;23.30;61.20;;;;;;4100183;28;20046;-69
2023/05/16 06:51:52;;;;;;;4.70;3.70;;;23.00;62.20;;;;;;4098138;28;20498;-71
2023/05/16 06:54:14;;;;;;;5.20;4.25;;;22.80;62.90;;;;;;4077735;28;20114;-70
2023/05/16 06:56:37;;;;;;;5.68;4.05;;;22.70;63.50;;;;;;4081151;28;20043;-70
2023/05/16 06:59:00;;;;;;;4.53;3.33;;;22.50;63.90;;;;;;4095811;28;20044;-69
2023/05/16 07:01:23;;;;;;;4.63;3.55;;;22.40;64.20;;;;;;4096510;28;20086;-71
2023/05/16 07:03:45;;;;;;;7.90;3.35;;;22.30;64.50;;;;;;4098465;28;20043;-72
2023/05/16 07:06:08;;;;;;;4.20;2.97;;;22.30;64.70;;;;;;4096093;28;20039;-70
2023/05/16 07:08:30;;;;;;;4.78;3.28;;;22.20;65.00;;;;;;4096074;28;20047;-70
2023/05/16 07:10:52;;;;;;;5.57;3.20;;;22.20;65.10;;;;;;4098692;28;20047;-70
2023/05/16 07:13:15;;;;;;;3.78;2.85;;;22.10;65.30;;;;;;4094895;28;20413;-70
2023/05/16 07:15:37;;;;;;;6.25;2.63;;;22.10;65.50;;;;;;4097573;28;20471;-70
2023/05/16 07:18:00;;;;;;;5.82;2.72;;;22.10;65.50;;;;;;4098953;28;20043;-70
2023/05/16 07:20:22;;;;;;;4.38;2.45;;;22.00;65.50;;;;;;4097633;28;20122;-70
2023/05/16 07:22:45;;;;;;;5.03;2.50;;;22.10;65.60;;;;;;4097396;28;20497;-71
2023/05/16 07:25:11;;;;;;;3.30;2.45;;;22.00;65.50;;;;;;4100974;28;20039;-68
2023/05/16 07:27:33;;;;;;;5.35;3.00;;;22.00;65.60;;;;;;4082168;29;20462;-73
2023/05/16 07:29:56;;;;;;;5.43;2.78;;;22.00;65.50;;;;;;4103570;28;20054;-76
2023/05/16 07:32:19;;;;;;;4.63;2.80;;;22.00;65.20;;;;;;4094087;28;20123;-75
2023/05/16 07:34:41;;;;;;;4.63;2.80;;;21.90;64.90;;;;;;4092137;28;20048;-75
2023/05/16 07:37:05;;;;;;;5.85;3.38;;;21.90;64.70;;;;;;4096793;28;20035;-75
2023/05/16 07:39:27;;;;;;;;;;;21.90;64.50;;;;;;4095543;28;20417;-77
2023/05/16 07:41:49;;;;;;;8.30;3.17;;;21.90;64.40;;;;;;4095685;28;19915;-73
2023/05/16 07:44:12;;;;;;;4.75;3.00;;;21.80;64.20;;;;;;4094281;28;20047;-76
2023/05/16 07:46:34;;;;;;;7.38;3.88;;;21.80;64.00;;;;;;4104692;28;20058;-75
2023/05/16 07:48:57;;;;;;;6.00;3.50;;;21.80;63.90;;;;;;4093736;28;20535;-74
2023/05/16 07:51:19;;;;;;;5.72;3.63;;;21.80;64.60;;;;;;4093794;28;20058;-75
2023/05/16 07:53:41;;;;;;;6.60;3.95;;;21.70;64.10;;;;;;4098382;28;20035;-76
2023/05/16 07:56:05;;;;;;;10.82;3.60;;;21.70;64.00;;;;;;4102321;28;20043;-75
2023/05/16 07:58:28;;;;;;;5.05;3.47;;;21.70;64.20;;;;;;4095078;28;20142;-74
2023/05/16 08:00:50;;;;;;;6.10;3.20;;;21.70;64.40;;;;;;4100114;28;20046;-74
2023/05/16 08:03:13;;;;;;;4.88;3.20;;;21.70;64.50;;;;;;4103348;28;20489;-77
2023/05/16 08:05:35;;;;;;;4.82;3.03;;;21.70;64.50;;;;;;4100865;28;20038;-77
2023/05/16 08:07:57;;;;;;;6.25;3.40;;;21.70;64.20;;;;;;4107612;28;20049;-77
2023/05/16 08:10:20;;;;;;;4.00;3.20;;;21.70;63.60;;;;;;4101484;28;20054;-74
2023/05/16 08:12:42;;;;;;;5.57;3.28;;;21.60;62.90;;;;;;4101115;28;20517;-74
2023/05/16 08:15:05;;;;;;;7.78;3.05;;;21.60;62.80;;;;;;4105594;28;20483;-75
2023/05/16 08:17:28;;;;;;;5.07;2.80;;;21.60;63.00;;;;;;4100429;28;20520;-74
2023/05/16 08:19:50;;;;;;;4.28;2.47;;;21.60;63.20;;;;;;4099260;28;20099;-75
2023/05/16 08:22:13;;;;;;;3.78;2.20;;;21.60;63.50;;;;;;4092036;28;20035;-74
2023/05/16 08:24:35;;;;;;;6.68;2.72;;;21.60;63.60;;;;;;4095659;28;20051;-75
2023/05/16 08:26:58;;;;;;;4.88;2.20;;;21.60;63.70;;;;;;4094631;28;20043;-74
2023/05/16 08:29:20;;;;;;;4.68;2.30;;;21.60;63.80;;;;;;4084955;28;20052;-75
2023/05/16 08:31:43;;;;;;;3.95;2.10;;;21.60;63.80;;;;;;4090875;28;20449;-75
2023/05/16 08:34:05;;;;;;;5.07;2.30;;;21.60;64.10;;;;;;4088835;28;20032;-75
2023/05/16 08:36:28;;;;;;;5.57;2.20;;;21.60;64.00;;;;;;4093160;28;20043;-75
2023/05/16 08:38:50;;;;;;;3.63;1.98;;;21.60;64.00;;;;;;4089627;28;20039;-75
2023/05/16 08:41:13;;;;;;;5.85;2.38;;;21.60;64.00;;;;;;4090554;28;20043;-73
2023/05/16 08:43:35;;;;;;;3.13;2.00;;;21.50;63.90;;;;;;4076973;28;20040;-75
2023/05/16 08:45:58;;;;;;;6.03;2.20;;;21.50;63.90;;;;;;4095904;28;20046;-74
2023/05/16 08:48:23;;;;;;;8.85;2.50;;;21.50;64.10;;;;;;4083372;28;20441;-75
2023/05/16 08:50:46;;;;;;;12.77;2.88;;;21.50;64.50;;;;;;4093215;28;20476;-74
2023/05/16 08:53:11;;;;;;;4.32;2.60;;;21.50;63.70;;;;;;4094946;28;20037;-74
2023/05/16 08:55:35;;;;;;;8.88;2.80;;;21.50;62.90;;;;;;4092751;28;20042;-74
2023/05/16 08:57:59;;;;;;;6.53;3.03;;;21.50;62.20;;;;;;4086900;28;20171;-74
2023/05/16 09:00:22;;;;;;;4.38;2.72;;;21.40;61.90;;;;;;4089050;28;20035;-74
2023/05/16 09:02:45;;;;;;;4.15;3.00;;;21.40;61.70;;;;;;4087979;28;20043;-74
2023/05/16 09:05:17;;;;;;;3.60;2.58;;;21.30;61.60;;;;;;4083122;28;20066;-75
2023/05/16 09:07:44;;;;;;;4.75;2.97;;;21.30;61.40;;;;;;4086285;28;20063;-74
2023/05/16 09:10:10;;;;;;;5.28;3.05;;;21.20;61.30;;;;;;4084741;28;20110;-74
2023/05/16 09:12:34;;;;;;;5.40;3.22;;;21.20;61.50;;;;;;4078876;28;20054;-74
2023/05/16 09:14:57;;;;;;;5.28;2.80;;;21.10;61.50;;;;;;4089979;28;20081;-74
2023/05/16 09:17:19;;;;;;;4.93;2.85;;;21.10;61.80;;;;;;4090770;28;20354;-74
2023/05/16 09:19:43;;;;;;;4.15;2.90;;;21.10;62.30;;;;;;4088448;28;20118;-74
2023/05/16 09:22:14;;;;;;;3.97;2.80;;;21.00;61.80;;;;;;4084361;28;20047;-74
2023/05/16 09:24:43;;;;;;;4.25;2.92;;;21.00;61.90;;;;;;4083723;28;20441;-74
2023/05/16 09:27:13;;;;;;;4.60;2.90;;;20.90;61.80;;;;;;4085127;28;21297;-74
2023/05/16 09:29:37;;;;;;;3.75;2.60;;;20.90;62.00;;;;;;4086011;28;20126;-75
2023/05/16 09:32:15;;;;;;;3.75;2.83;;;20.90;62.00;;;;;;4087602;28;20038;-74
2023/05/16 09:34:48;;;;;;;4.97;3.05;;;20.90;62.70;;;;;;4089883;28;20472;-75
2023/05/16 09:37:11;;;;;;;3.60;2.50;;;20.80;62.10;;;;;;4087861;28;20077;-75
2023/05/16 09:39:34;;;;;;;3.40;2.53;;;20.80;62.10;;;;;;4087631;28;20043;-74
2023/05/16 09:41:58;;;;;;;4.07;2.55;;;20.70;63.20;;;;;;4081843;28;20049;-74
2023/05/16 09:44:21;;;;;;;3.75;2.85;;;20.70;62.40;;;;;;4090299;28;20933;-75
2023/05/16 09:46:43;;;;;;;3.92;2.78;;;20.70;62.50;;;;;;4090608;28;20070;-75
2023/05/16 09:49:06;;;;;;;3.55;2.60;;;20.70;62.90;;;;;;4088867;28;20031;-74
2023/05/16 09:51:28;;;;;;;3.72;3.00;;;20.60;62.40;;;;;;4090010;28;20043;-74
2023/05/16 09:53:51;;;;;;;4.43;2.90;;;20.60;62.80;;;;;;4089854;28;20418;-75
2023/05/16 09:56:15;;;;;;;4.03;2.75;;;20.60;62.80;;;;;;4092975;28;20549;-75
2023/05/16 09:58:39;;;;;;;3.83;2.60;;;20.50;62.60;;;;;;4089178;28;20050;-74
2023/05/16 10:01:02;;;;;;;3.53;2.42;;;20.50;62.80;;;;;;4089114;28;20032;-75
2023/05/16 10:03:26;;;;;;;5.00;2.60;;;20.50;62.90;;;;;;4085090;28;20039;-74
2023/05/16 10:05:48;;;;;;;3.65;2.13;;;20.50;63.10;;;;;;4075268;28;20537;-74
2023/05/16 10:08:11;;;;;;;4.18;2.80;;;20.50;62.80;;;;;;4090468;28;20122;-75
2023/05/16 10:10:37;;;;;;;3.33;2.40;;;20.40;63.00;;;;;;4091503;28;20051;-75
2023/05/16 10:13:01;;;;;;;4.35;2.53;;;20.40;62.90;;;;;;4089645;28;20569;-74
2023/05/16 10:15:23;;;;;;;3.45;2.47;;;20.40;63.00;;;;;;4100338;28;20043;-75
2023/05/16 10:17:51;;;;;;;3.05;2.30;;;20.40;63.10;;;;;;4095197;28;20046;-75
2023/05/16 10:20:14;;;;;;;4.35;2.47;;;20.30;62.80;;;;;;4097297;28;20073;-75
2023/05/16 10:22:42;;;;;;;2.70;2.40;;;20.30;63.00;;;;;;4093900;28;20031;-74
2023/05/16 10:25:28;;;;;;;3.50;2.53;;;20.30;63.00;;;;;;4099011;28;20146;-74
2023/05/16 10:27:51;;;;;;;3.20;2.40;;;20.30;63.00;;;;;;4092811;28;20549;-74
2023/05/16 10:30:16;;;;;;;3.40;2.40;;;20.20;63.10;;;;;;4083399;28;20514;-74
2023/05/16 10:32:39;;;;;;;3.20;2.55;;;20.20;63.20;;;;;;4093060;28;20039;-74
2023/05/16 10:35:02;;;;;;;3.55;2.55;;;20.20;63.10;;;;;;4094355;28;20039;-73
2023/05/16 10:37:28;;;;;;;6.40;2.55;;;20.20;63.10;;;;;;4092973;28;20123;-75
2023/05/16 10:39:51;;;;;;;3.28;2.67;;;20.20;62.90;;;;;;4094685;28;21196;-75
2023/05/16 10:42:17;;;;;;;3.00;2.25;;;20.10;63.20;;;;;;4100373;28;20078;-74
2023/05/16 10:44:39;;;;;;;3.30;2.47;;;20.10;63.10;;;;;;4097902;28;20557;-76
2023/05/16 10:47:04;;;;;;;3.45;2.40;;;20.10;63.40;;;;;;4081433;28;20028;-74
2023/05/16 10:49:27;;;;;;;2.97;2.42;;;20.10;63.10;;;;;;4093123;28;20047;-74
2023/05/16 10:52:08;;;;;;;4.55;2.90;;;20.10;63.20;;;;;;4095645;28;20046;-75
2023/05/16 10:54:39;;;;;;;4.07;2.60;;;20.00;62.90;;;;;;4093032;28;20047;-75
2023/05/16 10:57:23;;;;;;;3.30;2.53;;;20.00;63.10;;;;;;4094615;28;20445;-74
2023/05/16 10:59:50;;;;;;;3.42;2.60;;;20.00;63.20;;;;;;4094666;28;20486;-74
2023/05/16 11:02:32;;;;;;;3.40;2.45;;;20.00;63.20;;;;;;4096599;28;20043;-74
2023/05/16 11:04:59;;;;;;;2.83;2.33;;;20.00;63.30;;;;;;4093231;28;20530;-74
2023/05/16 11:07:24;;;;;;;3.92;2.40;;;20.00;63.10;;;;;;4093577;28;20049;-75
2023/05/16 11:10:04;;;;;;;3.20;2.30;;;19.90;63.50;;;;;;4092031;28;20057;-74
2023/05/16 11:12:37;;;;;;;3.08;2.42;;;19.90;63.40;;;;;;4096316;28;20039;-72
2023/05/16 11:15:00;;;;;;;2.80;2.20;;;19.90;63.30;;;;;;4101162;28;20045;-72
2023/05/16 11:17:23;;;;;;;2.97;2.40;;;19.90;63.20;;;;;;4094867;28;20324;-71
2023/05/16 11:20:00;;;;;;;3.85;2.40;;;19.90;63.30;;;;;;4099418;28;20039;-71
2023/05/16 11:22:42;;;;;;;3.58;2.60;;;19.90;63.40;;;;;;4093869;28;20077;-72
2023/05/16 11:25:11;;;;;;;3.17;2.45;;;19.90;63.20;;;;;;4082672;28;20031;-73
2023/05/16 11:27:43;;;;;;;3.30;2.45;;;19.80;63.10;;;;;;4095960;28;20082;-72
2023/05/16 11:30:05;;;;;;;3.20;2.50;;;19.80;63.30;;;;;;4095861;28;20130;-73
2023/05/16 11:32:27;;;;;;;3.60;2.30;;;19.80;63.30;;;;;;4100907;28;20043;-73
2023/05/16 11:34:51;;;;;;;3.42;2.47;;;19.80;63.40;;;;;;4107160;28;20047;-71
2023/05/16 11:37:14;;;;;;;3.92;2.63;;;19.80;63.30;;;;;;4082643;29;20039;-73
2023/05/16 11:39:40;;;;;;;3.70;2.57;;;19.80;63.60;;;;;;4096840;28;20035;-72
2023/05/16 11:42:12;;;;;;;3.65;2.67;;;19.80;63.10;;;;;;4099467;28;20384;-71
2023/05/16 11:44:34;;;;;;;4.60;2.90;;;19.70;62.90;;;;;;4101473;28;20074;-71
2023/05/16 11:46:57;;;;;;;2.88;2.25;;;19.70;63.20;;;;;;4099835;28;20039;-71
2023/05/16 11:49:23;;;;;;;3.80;2.70;;;19.70;63.20;;;;;;4084191;28;20038;-72
2023/05/16 11:51:45;;;;;;;3.53;2.50;;;19.70;63.20;;;;;;4099770;28;20043;-72
2023/05/16 11:54:15;;;;;;;4.40;2.85;;;19.70;63.20;;;;;;4095529;28;20069;-73
2023/05/16 11:56:38;;;;;;;3.50;2.60;;;19.70;63.20;;;;;;4100930;28;20091;-71
2023/05/16 11:59:04;;;;;;;4.00;2.50;;;19.70;63.20;;;;;;4108136;23;20155;-64
2023/05/16 12:10:13;;;;;;;6.47;3.53;;;19.60;63.20;;;;;;3388816;26;20063;-61
2023/05/16 12:12:37;;;;;;;8.35;2.83;;;19.60;63.00;;;;;;4085041;28;20039;-61
2023/05/16 12:15:00;;;;;;;3.42;2.42;;;19.60;63.40;;;;;;4072635;28;20091;-59
2023/05/16 12:17:22;;;;;;;5.05;2.40;;;19.60;63.70;;;;;;4071282;29;20055;-59
2023/05/16 12:19:45;;;;;;;4.22;2.33;;;19.60;63.80;;;;;;4071025;29;20072;-64
2023/05/16 12:22:19;;;;;;;4.13;2.30;;;19.60;63.90;;;;;;4078869;29;20039;-63
2023/05/16 12:24:41;;;;;;;;;;;19.60;64.10;;;;;;4078054;29;20991;-61
2023/05/16 12:27:04;;;;;;;10.13;3.20;;;19.60;64.30;;;;;;4077259;28;19911;-63
2023/05/16 12:31:40;;;;;;;21.02;3.55;;;19.70;65.00;;;;;;4095600;28;20139;-52
2023/05/16 12:34:02;;;;;;;11.77;3.92;;;19.70;65.30;;;;;;4086966;28;20539;-55
2023/05/16 12:36:26;;;;;;;10.15;2.85;;;19.70;65.40;;;;;;4089592;28;20125;-52